<?xml version="1.0" encoding="UTF-8" standalone="no" ?>
<gpx xmlns="http://www.topografix.com/GPX/1/1" xmlns:xsi="http://www.w3.org/2001/XMLSchema-instance" xsi:schemaLocation="http://www.topografix.com/GPX/1/1 http://www.topografix.com/GPX/1/1/gpx.xsd" version="1.1" creator="VisuGPX - https://www.visugpx.com">
  <metadata>
    <name>Regordane</name>
    <desc><![CDATA[Vista Hcx
Pradelles - La Bastide-Puylaurent
Pluie, vent, froid , départ 4° !
Longue étape, mais belle, beaucoup de revêtement goudronné !
]]></desc>
  </metadata>
  <trk>
    <name><![CDATA[ACTIVE LOG180159]]></name>
    <trkseg>
      <trkpt lat="44.59268" lon="3.90631">
        <ele>1012.011</ele>
        <time>2011-06-01T16:01:59Z</time>
      </trkpt>
      <trkpt lat="44.59269" lon="3.90612">
        <ele>1010.914</ele>
        <time>2011-06-01T16:02:09Z</time>
      </trkpt>
      <trkpt lat="44.59239" lon="3.90571">
        <ele>1011.115</ele>
        <time>2011-06-01T16:02:19Z</time>
      </trkpt>
      <trkpt lat="44.59232" lon="3.90562">
        <ele>1009.953</ele>
        <time>2011-06-01T16:02:29Z</time>
      </trkpt>
      <trkpt lat="44.59233" lon="3.90567">
        <ele>1010.719</ele>
        <time>2011-06-01T16:02:39Z</time>
      </trkpt>
      <trkpt lat="44.59232" lon="3.90567">
        <ele>1013.216</ele>
        <time>2011-06-01T16:02:49Z</time>
      </trkpt>
      <trkpt lat="44.5923" lon="3.90567">
        <ele>1014.534</ele>
        <time>2011-06-01T16:02:59Z</time>
      </trkpt>
      <trkpt lat="44.59229" lon="3.90568">
        <ele>1016.421</ele>
        <time>2011-06-01T16:03:09Z</time>
      </trkpt>
      <trkpt lat="44.59228" lon="3.90569">
        <ele>1017.617</ele>
        <time>2011-06-01T16:03:19Z</time>
      </trkpt>
      <trkpt lat="44.59226" lon="3.90569">
        <ele>1018.108</ele>
        <time>2011-06-01T16:03:29Z</time>
      </trkpt>
      <trkpt lat="44.59227" lon="3.90569">
        <ele>1018.909</ele>
        <time>2011-06-01T16:03:39Z</time>
      </trkpt>
      <trkpt lat="44.59227" lon="3.90569">
        <ele>1018.667</ele>
        <time>2011-06-01T16:03:49Z</time>
      </trkpt>
      <trkpt lat="44.59227" lon="3.90569">
        <ele>1018.645</ele>
        <time>2011-06-01T16:03:59Z</time>
      </trkpt>
      <trkpt lat="44.59227" lon="3.90569">
        <ele>1018.665</ele>
        <time>2011-06-01T16:04:09Z</time>
      </trkpt>
      <trkpt lat="44.59227" lon="3.90569">
        <ele>1017.669</ele>
        <time>2011-06-01T16:04:19Z</time>
      </trkpt>
      <trkpt lat="44.59227" lon="3.90569">
        <ele>1018.285</ele>
        <time>2011-06-01T16:04:29Z</time>
      </trkpt>
      <trkpt lat="44.59227" lon="3.90569">
        <ele>1018.447</ele>
        <time>2011-06-01T16:04:39Z</time>
      </trkpt>
      <trkpt lat="44.59227" lon="3.90569">
        <ele>1019.905</ele>
        <time>2011-06-01T16:04:49Z</time>
      </trkpt>
      <trkpt lat="44.59227" lon="3.90569">
        <ele>1019.974</ele>
        <time>2011-06-01T16:04:59Z</time>
      </trkpt>
      <trkpt lat="44.59228" lon="3.90569">
        <ele>1019.488</ele>
        <time>2011-06-01T16:05:09Z</time>
      </trkpt>
      <trkpt lat="44.59229" lon="3.90571">
        <ele>1018.393</ele>
        <time>2011-06-01T16:05:19Z</time>
      </trkpt>
      <trkpt lat="44.59231" lon="3.90572">
        <ele>1018.779</ele>
        <time>2011-06-01T16:05:29Z</time>
      </trkpt>
      <trkpt lat="44.59232" lon="3.90574">
        <ele>1018.053</ele>
        <time>2011-06-01T16:05:39Z</time>
      </trkpt>
      <trkpt lat="44.59232" lon="3.90573">
        <ele>1018.874</ele>
        <time>2011-06-01T16:05:49Z</time>
      </trkpt>
      <trkpt lat="44.59232" lon="3.90572">
        <ele>1018.637</ele>
        <time>2011-06-01T16:05:59Z</time>
      </trkpt>
      <trkpt lat="44.59231" lon="3.90572">
        <ele>1017.768</ele>
        <time>2011-06-01T16:06:09Z</time>
      </trkpt>
      <trkpt lat="44.59232" lon="3.90571">
        <ele>1018.974</ele>
        <time>2011-06-01T16:06:19Z</time>
      </trkpt>
      <trkpt lat="44.59231" lon="3.90571">
        <ele>1018.915</ele>
        <time>2011-06-01T16:06:29Z</time>
      </trkpt>
      <trkpt lat="44.59231" lon="3.9057">
        <ele>1018.899</ele>
        <time>2011-06-01T16:06:39Z</time>
      </trkpt>
      <trkpt lat="44.59231" lon="3.9057">
        <ele>1018.869</ele>
        <time>2011-06-01T16:06:49Z</time>
      </trkpt>
      <trkpt lat="44.59229" lon="3.90568">
        <ele>1018.425</ele>
        <time>2011-06-01T16:06:59Z</time>
      </trkpt>
      <trkpt lat="44.59228" lon="3.90568">
        <ele>1019.351</ele>
        <time>2011-06-01T16:07:09Z</time>
      </trkpt>
      <trkpt lat="44.59225" lon="3.90566">
        <ele>1018.427</ele>
        <time>2011-06-01T16:07:19Z</time>
      </trkpt>
      <trkpt lat="44.59224" lon="3.90565">
        <ele>1019.111</ele>
        <time>2011-06-01T16:07:29Z</time>
      </trkpt>
      <trkpt lat="44.59223" lon="3.90564">
        <ele>1019.249</ele>
        <time>2011-06-01T16:07:39Z</time>
      </trkpt>
      <trkpt lat="44.59222" lon="3.90564">
        <ele>1018.391</ele>
        <time>2011-06-01T16:07:49Z</time>
      </trkpt>
      <trkpt lat="44.59222" lon="3.90565">
        <ele>1019.513</ele>
        <time>2011-06-01T16:07:59Z</time>
      </trkpt>
      <trkpt lat="44.59226" lon="3.90568">
        <ele>1019.815</ele>
        <time>2011-06-01T16:08:09Z</time>
      </trkpt>
      <trkpt lat="44.59232" lon="3.90571">
        <ele>1019.091</ele>
        <time>2011-06-01T16:08:19Z</time>
      </trkpt>
      <trkpt lat="44.59232" lon="3.90573">
        <ele>1018.892</ele>
        <time>2011-06-01T16:08:29Z</time>
      </trkpt>
      <trkpt lat="44.59233" lon="3.90573">
        <ele>1019.525</ele>
        <time>2011-06-01T16:08:39Z</time>
      </trkpt>
      <trkpt lat="44.59234" lon="3.90573">
        <ele>1019.442</ele>
        <time>2011-06-01T16:08:49Z</time>
      </trkpt>
      <trkpt lat="44.59234" lon="3.90573">
        <ele>1019.63</ele>
        <time>2011-06-01T16:08:59Z</time>
      </trkpt>
      <trkpt lat="44.59233" lon="3.90572">
        <ele>1019.577</ele>
        <time>2011-06-01T16:09:09Z</time>
      </trkpt>
      <trkpt lat="44.59231" lon="3.9057">
        <ele>1019.322</ele>
        <time>2011-06-01T16:09:19Z</time>
      </trkpt>
      <trkpt lat="44.59228" lon="3.90566">
        <ele>1018.521</ele>
        <time>2011-06-01T16:09:29Z</time>
      </trkpt>
      <trkpt lat="44.59225" lon="3.90563">
        <ele>1018.876</ele>
        <time>2011-06-01T16:09:39Z</time>
      </trkpt>
      <trkpt lat="44.59222" lon="3.90564">
        <ele>1018.904</ele>
        <time>2011-06-01T16:09:49Z</time>
      </trkpt>
      <trkpt lat="44.59223" lon="3.90563">
        <ele>1019.675</ele>
        <time>2011-06-01T16:09:59Z</time>
      </trkpt>
      <trkpt lat="44.59223" lon="3.90562">
        <ele>1019.036</ele>
        <time>2011-06-01T16:10:09Z</time>
      </trkpt>
      <trkpt lat="44.59224" lon="3.90561">
        <ele>1019.77</ele>
        <time>2011-06-01T16:10:19Z</time>
      </trkpt>
      <trkpt lat="44.59227" lon="3.90565">
        <ele>1020.367</ele>
        <time>2011-06-01T16:10:29Z</time>
      </trkpt>
      <trkpt lat="44.5923" lon="3.90567">
        <ele>1019.527</ele>
        <time>2011-06-01T16:10:39Z</time>
      </trkpt>
      <trkpt lat="44.59231" lon="3.90572">
        <ele>1020.875</ele>
        <time>2011-06-01T16:10:49Z</time>
      </trkpt>
      <trkpt lat="44.59228" lon="3.90569">
        <ele>1020.523</ele>
        <time>2011-06-01T16:10:59Z</time>
      </trkpt>
      <trkpt lat="44.59228" lon="3.90568">
        <ele>1018.756</ele>
        <time>2011-06-01T16:11:09Z</time>
      </trkpt>
      <trkpt lat="44.59228" lon="3.90568">
        <ele>1020.552</ele>
        <time>2011-06-01T16:11:19Z</time>
      </trkpt>
      <trkpt lat="44.59228" lon="3.90568">
        <ele>1019.242</ele>
        <time>2011-06-01T16:11:29Z</time>
      </trkpt>
      <trkpt lat="44.59228" lon="3.90568">
        <ele>1019.535</ele>
        <time>2011-06-01T16:11:39Z</time>
      </trkpt>
      <trkpt lat="44.59228" lon="3.90568">
        <ele>1020.047</ele>
        <time>2011-06-01T16:11:49Z</time>
      </trkpt>
      <trkpt lat="44.59228" lon="3.90568">
        <ele>1019.899</ele>
        <time>2011-06-01T16:11:59Z</time>
      </trkpt>
      <trkpt lat="44.59228" lon="3.90568">
        <ele>1020.465</ele>
        <time>2011-06-01T16:12:09Z</time>
      </trkpt>
      <trkpt lat="44.59228" lon="3.90568">
        <ele>1020.086</ele>
        <time>2011-06-01T16:12:19Z</time>
      </trkpt>
      <trkpt lat="44.59228" lon="3.90568">
        <ele>1019.598</ele>
        <time>2011-06-01T16:12:29Z</time>
      </trkpt>
      <trkpt lat="44.59228" lon="3.90568">
        <ele>1019.336</ele>
        <time>2011-06-01T16:12:39Z</time>
      </trkpt>
      <trkpt lat="44.59228" lon="3.90568">
        <ele>1020.135</ele>
        <time>2011-06-01T16:12:49Z</time>
      </trkpt>
      <trkpt lat="44.59228" lon="3.90568">
        <ele>1020.042</ele>
        <time>2011-06-01T16:12:59Z</time>
      </trkpt>
      <trkpt lat="44.59228" lon="3.90568">
        <ele>1020.41</ele>
        <time>2011-06-01T16:13:09Z</time>
      </trkpt>
      <trkpt lat="44.59228" lon="3.90568">
        <ele>1019.809</ele>
        <time>2011-06-01T16:13:19Z</time>
      </trkpt>
      <trkpt lat="44.59228" lon="3.90568">
        <ele>1019.461</ele>
        <time>2011-06-01T16:13:29Z</time>
      </trkpt>
      <trkpt lat="44.59228" lon="3.90568">
        <ele>1019.006</ele>
        <time>2011-06-01T16:13:39Z</time>
      </trkpt>
      <trkpt lat="44.59228" lon="3.90568">
        <ele>1020.076</ele>
        <time>2011-06-01T16:13:49Z</time>
      </trkpt>
      <trkpt lat="44.59228" lon="3.90568">
        <ele>1019.765</ele>
        <time>2011-06-01T16:13:59Z</time>
      </trkpt>
      <trkpt lat="44.59229" lon="3.90568">
        <ele>1020.019</ele>
        <time>2011-06-01T16:14:09Z</time>
      </trkpt>
      <trkpt lat="44.59229" lon="3.90568">
        <ele>1019.557</ele>
        <time>2011-06-01T16:14:19Z</time>
      </trkpt>
      <trkpt lat="44.59229" lon="3.90568">
        <ele>1019.259</ele>
        <time>2011-06-01T16:14:29Z</time>
      </trkpt>
      <trkpt lat="44.59229" lon="3.90568">
        <ele>1019.802</ele>
        <time>2011-06-01T16:14:39Z</time>
      </trkpt>
      <trkpt lat="44.59229" lon="3.90568">
        <ele>1019.773</ele>
        <time>2011-06-01T16:14:49Z</time>
      </trkpt>
      <trkpt lat="44.59229" lon="3.90566">
        <ele>1018.834</ele>
        <time>2011-06-01T16:14:59Z</time>
      </trkpt>
      <trkpt lat="44.59229" lon="3.90567">
        <ele>1020.065</ele>
        <time>2011-06-01T16:15:09Z</time>
      </trkpt>
      <trkpt lat="44.59229" lon="3.90567">
        <ele>1019.718</ele>
        <time>2011-06-01T16:15:19Z</time>
      </trkpt>
      <trkpt lat="44.59229" lon="3.90567">
        <ele>1021.057</ele>
        <time>2011-06-01T16:15:29Z</time>
      </trkpt>
      <trkpt lat="44.59229" lon="3.90567">
        <ele>1018.903</ele>
        <time>2011-06-01T16:15:39Z</time>
      </trkpt>
      <trkpt lat="44.59228" lon="3.90568">
        <ele>1019.384</ele>
        <time>2011-06-01T16:15:49Z</time>
      </trkpt>
      <trkpt lat="44.59224" lon="3.90566">
        <ele>1019.112</ele>
        <time>2011-06-01T16:15:59Z</time>
      </trkpt>
      <trkpt lat="44.59223" lon="3.90566">
        <ele>1019.351</ele>
        <time>2011-06-01T16:16:09Z</time>
      </trkpt>
      <trkpt lat="44.59222" lon="3.90566">
        <ele>1018.936</ele>
        <time>2011-06-01T16:16:19Z</time>
      </trkpt>
      <trkpt lat="44.5922" lon="3.90565">
        <ele>1017.547</ele>
        <time>2011-06-01T16:16:29Z</time>
      </trkpt>
      <trkpt lat="44.59219" lon="3.90566">
        <ele>1019.578</ele>
        <time>2011-06-01T16:16:39Z</time>
      </trkpt>
      <trkpt lat="44.59219" lon="3.90566">
        <ele>1019.15</ele>
        <time>2011-06-01T16:16:49Z</time>
      </trkpt>
      <trkpt lat="44.59221" lon="3.90567">
        <ele>1018.489</ele>
        <time>2011-06-01T16:16:59Z</time>
      </trkpt>
      <trkpt lat="44.59221" lon="3.90566">
        <ele>1019.069</ele>
        <time>2011-06-01T16:17:09Z</time>
      </trkpt>
      <trkpt lat="44.59213" lon="3.9056">
        <ele>1018.911</ele>
        <time>2011-06-01T16:17:19Z</time>
      </trkpt>
      <trkpt lat="44.5921" lon="3.90557">
        <ele>1020.475</ele>
        <time>2011-06-01T16:17:29Z</time>
      </trkpt>
      <trkpt lat="44.5921" lon="3.90554">
        <ele>1018.397</ele>
        <time>2011-06-01T16:17:39Z</time>
      </trkpt>
      <trkpt lat="44.59212" lon="3.90561">
        <ele>1019.03</ele>
        <time>2011-06-01T16:17:49Z</time>
      </trkpt>
      <trkpt lat="44.59212" lon="3.90561">
        <ele>1019.678</ele>
        <time>2011-06-01T16:17:59Z</time>
      </trkpt>
      <trkpt lat="44.59213" lon="3.90562">
        <ele>1020.199</ele>
        <time>2011-06-01T16:18:09Z</time>
      </trkpt>
      <trkpt lat="44.59216" lon="3.90565">
        <ele>1018.565</ele>
        <time>2011-06-01T16:18:19Z</time>
      </trkpt>
      <trkpt lat="44.59222" lon="3.90572">
        <ele>1020.16</ele>
        <time>2011-06-01T16:18:29Z</time>
      </trkpt>
      <trkpt lat="44.59228" lon="3.90574">
        <ele>1019.162</ele>
        <time>2011-06-01T16:18:39Z</time>
      </trkpt>
      <trkpt lat="44.59227" lon="3.90574">
        <ele>1019.835</ele>
        <time>2011-06-01T16:18:49Z</time>
      </trkpt>
      <trkpt lat="44.59229" lon="3.90576">
        <ele>1019.157</ele>
        <time>2011-06-01T16:18:59Z</time>
      </trkpt>
      <trkpt lat="44.5923" lon="3.90578">
        <ele>1018.519</ele>
        <time>2011-06-01T16:19:09Z</time>
      </trkpt>
      <trkpt lat="44.59231" lon="3.90579">
        <ele>1020.098</ele>
        <time>2011-06-01T16:19:19Z</time>
      </trkpt>
      <trkpt lat="44.59231" lon="3.90579">
        <ele>1019.121</ele>
        <time>2011-06-01T16:19:29Z</time>
      </trkpt>
      <trkpt lat="44.59231" lon="3.9058">
        <ele>1018.53</ele>
        <time>2011-06-01T16:19:39Z</time>
      </trkpt>
      <trkpt lat="44.59231" lon="3.90581">
        <ele>1019.174</ele>
        <time>2011-06-01T16:19:49Z</time>
      </trkpt>
      <trkpt lat="44.5923" lon="3.90579">
        <ele>1019.6</ele>
        <time>2011-06-01T16:19:59Z</time>
      </trkpt>
      <trkpt lat="44.59227" lon="3.90574">
        <ele>1020.036</ele>
        <time>2011-06-01T16:20:09Z</time>
      </trkpt>
      <trkpt lat="44.59225" lon="3.90571">
        <ele>1018.372</ele>
        <time>2011-06-01T16:20:19Z</time>
      </trkpt>
      <trkpt lat="44.59224" lon="3.9057">
        <ele>1018.169</ele>
        <time>2011-06-01T16:20:29Z</time>
      </trkpt>
      <trkpt lat="44.59223" lon="3.90569">
        <ele>1018.016</ele>
        <time>2011-06-01T16:20:39Z</time>
      </trkpt>
      <trkpt lat="44.59224" lon="3.9057">
        <ele>1019.694</ele>
        <time>2011-06-01T16:20:49Z</time>
      </trkpt>
      <trkpt lat="44.59224" lon="3.90571">
        <ele>1018.782</ele>
        <time>2011-06-01T16:20:59Z</time>
      </trkpt>
      <trkpt lat="44.59225" lon="3.90571">
        <ele>1020.003</ele>
        <time>2011-06-01T16:21:09Z</time>
      </trkpt>
      <trkpt lat="44.59226" lon="3.90572">
        <ele>1020.785</ele>
        <time>2011-06-01T16:21:19Z</time>
      </trkpt>
      <trkpt lat="44.59226" lon="3.90573">
        <ele>1019.807</ele>
        <time>2011-06-01T16:21:29Z</time>
      </trkpt>
      <trkpt lat="44.59226" lon="3.90574">
        <ele>1020.745</ele>
        <time>2011-06-01T16:21:39Z</time>
      </trkpt>
      <trkpt lat="44.59223" lon="3.90574">
        <ele>1019.76</ele>
        <time>2011-06-01T16:21:49Z</time>
      </trkpt>
      <trkpt lat="44.59223" lon="3.90573">
        <ele>1018.66</ele>
        <time>2011-06-01T16:22:00Z</time>
      </trkpt>
      <trkpt lat="44.59223" lon="3.90573">
        <ele>1019.519</ele>
        <time>2011-06-01T16:22:09Z</time>
      </trkpt>
      <trkpt lat="44.59223" lon="3.90572">
        <ele>1019.525</ele>
        <time>2011-06-01T16:22:19Z</time>
      </trkpt>
      <trkpt lat="44.59224" lon="3.90573">
        <ele>1019.263</ele>
        <time>2011-06-01T16:22:29Z</time>
      </trkpt>
      <trkpt lat="44.59226" lon="3.90574">
        <ele>1019.815</ele>
        <time>2011-06-01T16:22:39Z</time>
      </trkpt>
      <trkpt lat="44.59226" lon="3.90575">
        <ele>1018.877</ele>
        <time>2011-06-01T16:22:49Z</time>
      </trkpt>
      <trkpt lat="44.59225" lon="3.90577">
        <ele>1019.177</ele>
        <time>2011-06-01T16:22:59Z</time>
      </trkpt>
      <trkpt lat="44.59223" lon="3.90577">
        <ele>1019.766</ele>
        <time>2011-06-01T16:23:09Z</time>
      </trkpt>
      <trkpt lat="44.59222" lon="3.90575">
        <ele>1020.06</ele>
        <time>2011-06-01T16:23:19Z</time>
      </trkpt>
      <trkpt lat="44.59222" lon="3.90574">
        <ele>1018.227</ele>
        <time>2011-06-01T16:23:29Z</time>
      </trkpt>
      <trkpt lat="44.59223" lon="3.90574">
        <ele>1018.562</ele>
        <time>2011-06-01T16:23:39Z</time>
      </trkpt>
      <trkpt lat="44.59224" lon="3.90574">
        <ele>1020.694</ele>
        <time>2011-06-01T16:23:49Z</time>
      </trkpt>
      <trkpt lat="44.59225" lon="3.90576">
        <ele>1020.395</ele>
        <time>2011-06-01T16:23:59Z</time>
      </trkpt>
      <trkpt lat="44.59225" lon="3.90577">
        <ele>1019.903</ele>
        <time>2011-06-01T16:24:09Z</time>
      </trkpt>
      <trkpt lat="44.59226" lon="3.90576">
        <ele>1018.563</ele>
        <time>2011-06-01T16:24:19Z</time>
      </trkpt>
      <trkpt lat="44.59226" lon="3.90575">
        <ele>1021.383</ele>
        <time>2011-06-01T16:24:29Z</time>
      </trkpt>
      <trkpt lat="44.59226" lon="3.90576">
        <ele>1019.624</ele>
        <time>2011-06-01T16:25:05Z</time>
      </trkpt>
      <trkpt lat="44.59222" lon="3.90576">
        <ele>1019.934</ele>
        <time>2011-06-01T16:25:16Z</time>
      </trkpt>
      <trkpt lat="44.59219" lon="3.90575">
        <ele>1019.971</ele>
        <time>2011-06-01T16:25:26Z</time>
      </trkpt>
      <trkpt lat="44.59216" lon="3.90572">
        <ele>1019.754</ele>
        <time>2011-06-01T16:25:36Z</time>
      </trkpt>
      <trkpt lat="44.59217" lon="3.90571">
        <ele>1019.706</ele>
        <time>2011-06-01T16:25:46Z</time>
      </trkpt>
      <trkpt lat="44.59219" lon="3.90572">
        <ele>1020.832</ele>
        <time>2011-06-01T16:25:56Z</time>
      </trkpt>
      <trkpt lat="44.59221" lon="3.90572">
        <ele>1020.675</ele>
        <time>2011-06-01T16:26:06Z</time>
      </trkpt>
      <trkpt lat="44.59223" lon="3.9057">
        <ele>1019.034</ele>
        <time>2011-06-01T16:26:16Z</time>
      </trkpt>
      <trkpt lat="44.59228" lon="3.90569">
        <ele>1020.338</ele>
        <time>2011-06-01T16:26:26Z</time>
      </trkpt>
      <trkpt lat="44.59229" lon="3.90569">
        <ele>1018.57</ele>
        <time>2011-06-01T16:26:36Z</time>
      </trkpt>
      <trkpt lat="44.59227" lon="3.90569">
        <ele>1019.875</ele>
        <time>2011-06-01T16:26:46Z</time>
      </trkpt>
      <trkpt lat="44.59225" lon="3.9057">
        <ele>1020.585</ele>
        <time>2011-06-01T16:26:56Z</time>
      </trkpt>
      <trkpt lat="44.59223" lon="3.9057">
        <ele>1019.839</ele>
        <time>2011-06-01T16:27:06Z</time>
      </trkpt>
      <trkpt lat="44.59223" lon="3.9057">
        <ele>1020.548</ele>
        <time>2011-06-01T16:27:16Z</time>
      </trkpt>
      <trkpt lat="44.59223" lon="3.9057">
        <ele>1018.119</ele>
        <time>2011-06-01T16:27:26Z</time>
      </trkpt>
      <trkpt lat="44.59223" lon="3.9057">
        <ele>1019.835</ele>
        <time>2011-06-01T16:27:36Z</time>
      </trkpt>
      <trkpt lat="44.59223" lon="3.9057">
        <ele>1020.971</ele>
        <time>2011-06-01T16:27:52Z</time>
      </trkpt>
      <trkpt lat="44.59223" lon="3.9057">
        <ele>1019.81</ele>
        <time>2011-06-01T16:28:03Z</time>
      </trkpt>
      <trkpt lat="44.59223" lon="3.9057">
        <ele>1020.559</ele>
        <time>2011-06-01T16:28:13Z</time>
      </trkpt>
      <trkpt lat="44.59222" lon="3.90571">
        <ele>1019.915</ele>
        <time>2011-06-01T16:28:23Z</time>
      </trkpt>
      <trkpt lat="44.59222" lon="3.90573">
        <ele>1018.897</ele>
        <time>2011-06-01T16:28:33Z</time>
      </trkpt>
      <trkpt lat="44.59222" lon="3.90574">
        <ele>1019.475</ele>
        <time>2011-06-01T16:28:43Z</time>
      </trkpt>
      <trkpt lat="44.59223" lon="3.90575">
        <ele>1019.07</ele>
        <time>2011-06-01T16:28:53Z</time>
      </trkpt>
      <trkpt lat="44.59225" lon="3.90575">
        <ele>1019.567</ele>
        <time>2011-06-01T16:29:03Z</time>
      </trkpt>
      <trkpt lat="44.59225" lon="3.90575">
        <ele>1019.661</ele>
        <time>2011-06-01T16:29:13Z</time>
      </trkpt>
      <trkpt lat="44.59225" lon="3.90575">
        <ele>1019.573</ele>
        <time>2011-06-01T16:29:23Z</time>
      </trkpt>
      <trkpt lat="44.59225" lon="3.90575">
        <ele>1019.76</ele>
        <time>2011-06-01T16:29:33Z</time>
      </trkpt>
      <trkpt lat="44.59225" lon="3.90575">
        <ele>1018.391</ele>
        <time>2011-06-01T16:29:43Z</time>
      </trkpt>
      <trkpt lat="44.59225" lon="3.90575">
        <ele>1019.848</ele>
        <time>2011-06-01T16:29:53Z</time>
      </trkpt>
      <trkpt lat="44.59225" lon="3.90575">
        <ele>1019.435</ele>
        <time>2011-06-01T16:30:03Z</time>
      </trkpt>
      <trkpt lat="44.59224" lon="3.90575">
        <ele>1019.771</ele>
        <time>2011-06-01T16:30:13Z</time>
      </trkpt>
      <trkpt lat="44.59224" lon="3.90575">
        <ele>1019.465</ele>
        <time>2011-06-01T16:30:23Z</time>
      </trkpt>
      <trkpt lat="44.59224" lon="3.90576">
        <ele>1017.536</ele>
        <time>2011-06-01T16:30:33Z</time>
      </trkpt>
      <trkpt lat="44.59224" lon="3.90576">
        <ele>1020.182</ele>
        <time>2011-06-01T16:30:43Z</time>
      </trkpt>
      <trkpt lat="44.59224" lon="3.90575">
        <ele>1019.268</ele>
        <time>2011-06-01T16:30:53Z</time>
      </trkpt>
      <trkpt lat="44.59224" lon="3.90575">
        <ele>1020.236</ele>
        <time>2011-06-01T16:31:03Z</time>
      </trkpt>
      <trkpt lat="44.59224" lon="3.90575">
        <ele>1018.136</ele>
        <time>2011-06-01T16:31:13Z</time>
      </trkpt>
      <trkpt lat="44.59224" lon="3.90575">
        <ele>1018.593</ele>
        <time>2011-06-01T16:31:23Z</time>
      </trkpt>
      <trkpt lat="44.59224" lon="3.90575">
        <ele>1018.631</ele>
        <time>2011-06-01T16:31:33Z</time>
      </trkpt>
      <trkpt lat="44.59223" lon="3.90574">
        <ele>1019.149</ele>
        <time>2011-06-01T16:31:43Z</time>
      </trkpt>
      <trkpt lat="44.59223" lon="3.90573">
        <ele>1020.811</ele>
        <time>2011-06-01T16:31:53Z</time>
      </trkpt>
      <trkpt lat="44.59223" lon="3.90573">
        <ele>1019.063</ele>
        <time>2011-06-01T16:32:03Z</time>
      </trkpt>
      <trkpt lat="44.59223" lon="3.90573">
        <ele>1020.218</ele>
        <time>2011-06-01T16:32:13Z</time>
      </trkpt>
      <trkpt lat="44.59223" lon="3.90572">
        <ele>1020.057</ele>
        <time>2011-06-01T16:32:23Z</time>
      </trkpt>
      <trkpt lat="44.59223" lon="3.90572">
        <ele>1019.771</ele>
        <time>2011-06-01T16:32:33Z</time>
      </trkpt>
      <trkpt lat="44.59223" lon="3.90573">
        <ele>1021.558</ele>
        <time>2011-06-01T16:32:43Z</time>
      </trkpt>
      <trkpt lat="44.59223" lon="3.90573">
        <ele>1020.23</ele>
        <time>2011-06-01T16:32:53Z</time>
      </trkpt>
      <trkpt lat="44.59223" lon="3.90573">
        <ele>1019.479</ele>
        <time>2011-06-01T16:33:03Z</time>
      </trkpt>
      <trkpt lat="44.59223" lon="3.90573">
        <ele>1020.924</ele>
        <time>2011-06-01T16:33:13Z</time>
      </trkpt>
      <trkpt lat="44.59226" lon="3.90573">
        <ele>1020.713</ele>
        <time>2011-06-01T16:33:23Z</time>
      </trkpt>
      <trkpt lat="44.59225" lon="3.90573">
        <ele>1020.204</ele>
        <time>2011-06-01T16:33:33Z</time>
      </trkpt>
      <trkpt lat="44.59225" lon="3.90573">
        <ele>1020.42</ele>
        <time>2011-06-01T16:33:43Z</time>
      </trkpt>
      <trkpt lat="44.59225" lon="3.90573">
        <ele>1019.74</ele>
        <time>2011-06-01T16:33:53Z</time>
      </trkpt>
      <trkpt lat="44.59225" lon="3.90573">
        <ele>1019.838</ele>
        <time>2011-06-01T16:34:03Z</time>
      </trkpt>
      <trkpt lat="44.59225" lon="3.90573">
        <ele>1019.3</ele>
        <time>2011-06-01T16:34:13Z</time>
      </trkpt>
      <trkpt lat="44.59225" lon="3.90573">
        <ele>1019.96</ele>
        <time>2011-06-01T16:34:23Z</time>
      </trkpt>
      <trkpt lat="44.59224" lon="3.90572">
        <ele>1020.117</ele>
        <time>2011-06-01T16:34:33Z</time>
      </trkpt>
      <trkpt lat="44.59223" lon="3.90572">
        <ele>1020.074</ele>
        <time>2011-06-01T16:34:43Z</time>
      </trkpt>
      <trkpt lat="44.59221" lon="3.90572">
        <ele>1020.043</ele>
        <time>2011-06-01T16:34:53Z</time>
      </trkpt>
      <trkpt lat="44.5922" lon="3.90572">
        <ele>1019.399</ele>
        <time>2011-06-01T16:35:03Z</time>
      </trkpt>
      <trkpt lat="44.5922" lon="3.90572">
        <ele>1019.075</ele>
        <time>2011-06-01T16:35:13Z</time>
      </trkpt>
      <trkpt lat="44.5922" lon="3.90572">
        <ele>1018.398</ele>
        <time>2011-06-01T16:35:23Z</time>
      </trkpt>
      <trkpt lat="44.5922" lon="3.90572">
        <ele>1018.968</ele>
        <time>2011-06-01T16:35:33Z</time>
      </trkpt>
      <trkpt lat="44.59222" lon="3.90573">
        <ele>1019.309</ele>
        <time>2011-06-01T16:35:43Z</time>
      </trkpt>
      <trkpt lat="44.59224" lon="3.90574">
        <ele>1020.241</ele>
        <time>2011-06-01T16:35:53Z</time>
      </trkpt>
      <trkpt lat="44.59223" lon="3.90574">
        <ele>1017.851</ele>
        <time>2011-06-01T16:36:03Z</time>
      </trkpt>
      <trkpt lat="44.59222" lon="3.90575">
        <ele>1018.149</ele>
        <time>2011-06-01T16:36:13Z</time>
      </trkpt>
      <trkpt lat="44.59222" lon="3.90572">
        <ele>1018.203</ele>
        <time>2011-06-01T16:36:30Z</time>
      </trkpt>
      <trkpt lat="44.59223" lon="3.90571">
        <ele>1018.864</ele>
        <time>2011-06-01T16:36:41Z</time>
      </trkpt>
      <trkpt lat="44.59224" lon="3.9057">
        <ele>1020.389</ele>
        <time>2011-06-01T16:36:51Z</time>
      </trkpt>
      <trkpt lat="44.59235" lon="3.90573">
        <ele>1017.186</ele>
        <time>2011-06-01T16:38:15Z</time>
      </trkpt>
      <trkpt lat="44.59235" lon="3.90573">
        <ele>1019.289</ele>
        <time>2011-06-01T16:38:26Z</time>
      </trkpt>
      <trkpt lat="44.59233" lon="3.90572">
        <ele>1019.263</ele>
        <time>2011-06-01T16:38:42Z</time>
      </trkpt>
      <trkpt lat="44.59227" lon="3.90572">
        <ele>1018.922</ele>
        <time>2011-06-01T16:38:53Z</time>
      </trkpt>
      <trkpt lat="44.59223" lon="3.90574">
        <ele>1019.627</ele>
        <time>2011-06-01T16:39:03Z</time>
      </trkpt>
      <trkpt lat="44.5922" lon="3.90574">
        <ele>1020.111</ele>
        <time>2011-06-01T16:39:13Z</time>
      </trkpt>
      <trkpt lat="44.59218" lon="3.90575">
        <ele>1020.041</ele>
        <time>2011-06-01T16:39:23Z</time>
      </trkpt>
      <trkpt lat="44.59219" lon="3.90574">
        <ele>1019.34</ele>
        <time>2011-06-01T16:39:33Z</time>
      </trkpt>
      <trkpt lat="44.5922" lon="3.90573">
        <ele>1018.275</ele>
        <time>2011-06-01T16:39:43Z</time>
      </trkpt>
      <trkpt lat="44.5922" lon="3.90572">
        <ele>1019.308</ele>
        <time>2011-06-01T16:39:53Z</time>
      </trkpt>
      <trkpt lat="44.59222" lon="3.90572">
        <ele>1019.771</ele>
        <time>2011-06-01T16:40:03Z</time>
      </trkpt>
      <trkpt lat="44.59224" lon="3.90573">
        <ele>1020.009</ele>
        <time>2011-06-01T16:40:13Z</time>
      </trkpt>
      <trkpt lat="44.59225" lon="3.90573">
        <ele>1019.544</ele>
        <time>2011-06-01T16:40:23Z</time>
      </trkpt>
      <trkpt lat="44.59225" lon="3.90573">
        <ele>1019.58</ele>
        <time>2011-06-01T16:40:33Z</time>
      </trkpt>
      <trkpt lat="44.59225" lon="3.90573">
        <ele>1020.303</ele>
        <time>2011-06-01T16:40:43Z</time>
      </trkpt>
      <trkpt lat="44.59225" lon="3.90574">
        <ele>1019.923</ele>
        <time>2011-06-01T16:40:53Z</time>
      </trkpt>
      <trkpt lat="44.59225" lon="3.90573">
        <ele>1020.674</ele>
        <time>2011-06-01T16:41:03Z</time>
      </trkpt>
    </trkseg>
  </trk>
</gpx>